This is the latest recevied weather packets stored in our database for station/object OK2BOZ-1. If no packets are shown the sender has not sent any weather packets the latest 10 day(s).
| Time | Temp. | Humidity | Pressure | Rain* | Wind** | Luminosity | Snow |
|---|---|---|---|---|---|---|---|
| 1777959146 | 14.44° C | 61% | 1009.3 hPa | - | - | - | - |
| 1777958832 | 14.44° C | 62% | 1009.3 hPa | - | - | - | - |
| 1777958518 | 13.89° C | 63% | 1009.3 hPa | - | - | - | - |
| 1777958203 | 13.33° C | 65% | 1009.3 hPa | - | - | - | - |
| 1777957889 | 12.78° C | 69% | 1009.3 hPa | - | - | - | - |
| 1777957575 | 12.22° C | 70% | 1009.3 hPa | - | - | - | - |
| 1777956603 | 11.11° C | 77% | 1009.2 hPa | - | - | - | - |
| 1777956290 | 10.56° C | 80% | 1009.3 hPa | - | - | - | - |
| 1777955974 | 10° C | 88% | 1009.3 hPa | - | - | - | - |
| 1777871325 | 16.67° C | 51% | 1015.1 hPa | - | - | - | - |
| 1777871010 | 16.11° C | 52% | 1015.1 hPa | - | - | - | - |
| 1777870696 | 16.11° C | 54% | 1015.1 hPa | - | - | - | - |
| 1777870381 | 14.44° C | 56% | 1015.1 hPa | - | - | - | - |
| 1777870067 | 13.89° C | 57% | 1015 hPa | - | - | - | - |
| 1777869752 | 14.44° C | 56% | 1015 hPa | - | - | - | - |
| 1777869438 | 13.89° C | 59% | 1014.9 hPa | - | - | - | - |
| 1777869124 | 13.33° C | 60% | 1014.9 hPa | - | - | - | - |
| 1777868809 | 12.78° C | 63% | 1014.8 hPa | - | - | - | - |
| 1777868495 | 12.22° C | 76% | 1014.8 hPa | - | - | - | - |
| 1777868181 | 11.11° C | 87% | 1014.9 hPa | - | - | - | - |
| 1777867867 | 9.44° C | 10% | - | - | - | - | - |
| 1777867553 | 7.78° C | 10% | - | - | - | - | - |
| 1777791960 | 20.56° C | 41% | 1019.2 hPa | - | - | - | - |
| 1777791646 | 21.67° C | 39% | 1019.2 hPa | - | - | - | - |
| 1777791330 | 22.22° C | 40% | 1019.2 hPa | - | - | - | - |
* Rain since midnight (hover to see other rain measurements)
** Current wind speed in m/s (hover to see current wind gust speed)